Time;durP1;ratioP1;P1;durP2;ratioP2;P2;SDS_P1;SDS_P2;PMS_P1;PMS_P2;Temp;Humidity;BMP_temperature;BMP_pressure;BME280_temperature;BME280_humidity;BME280_pressure;Samples;Min_cycle;Max_cycle;Signal;HPM_P1;HPM_P2
2022/03/14 00:00:47;;;;;;;5.35;3.80;;;;;;;;;;4360634;32;19934;-75
2022/03/14 00:03:13;;;;;;;3.95;3.08;;;;;;;;;;4351819;32;20054;-75
2022/03/14 00:05:38;;;;;;;5.57;3.50;;;;;;;;;;4347695;33;20080;-76
2022/03/14 00:08:03;;;;;;;;;;;;;;;;;;4358474;32;20083;-76
2022/03/14 00:10:29;;;;;;;4.87;2.55;;;;;;;;;;4342719;33;19974;-75
2022/03/14 00:12:58;;;;;;;;;;;;;;;;;;4345917;33;20031;-76
2022/03/14 00:15:28;;;;;;;3.72;2.92;;;;;;;;;;4348029;33;19968;-75
2022/03/14 00:17:54;;;;;;;3.53;2.70;;;;;;;;;;4347641;33;20053;-75
2022/03/14 00:20:19;;;;;;;;;;;;;;;;;;4359287;32;20039;-75
2022/03/14 00:22:46;;;;;;;4.32;2.75;;;;;;;;;;4344906;33;19949;-77
2022/03/14 00:25:12;;;;;;;5.80;3.33;;;;;;;;;;4353776;33;20373;-75
2022/03/14 00:27:37;;;;;;;;;;;;;;;;;;4346025;33;20433;-75
2022/03/14 00:30:06;;;;;;;4.50;3.00;;;;;;;;;;4346985;33;19934;-75
2022/03/14 00:32:31;;;;;;;3.53;2.65;;;;;;;;;;4355313;32;20043;-74
2022/03/14 00:34:56;;;;;;;;;;;;;;;;;;4346621;33;20054;-75
2022/03/14 00:37:22;;;;;;;3.78;2.95;;;;;;;;;;4346134;32;19962;-75
2022/03/14 00:39:47;;;;;;;;;;;;;;;;;;4344622;33;20040;-76
2022/03/14 00:42:13;;;;;;;3.83;2.65;;;;;;;;;;4341576;33;19945;-76
2022/03/14 00:44:38;;;;;;;;;;;;;;;;;;4345793;33;20085;-75
2022/03/14 00:47:04;;;;;;;3.47;2.85;;;;;;;;;;4360090;33;20284;-75
2022/03/14 00:49:29;;;;;;;;;;;;;;;;;;4343697;33;20077;-76
2022/03/14 00:51:54;;;;;;;6.03;3.22;;;;;;;;;;4346449;33;19939;-77
2022/03/14 00:54:19;;;;;;;;;;;;;;;;;;4353710;32;20421;-75
2022/03/14 00:56:45;;;;;;;5.30;4.03;;;;;;;;;;4360888;32;19934;-75
2022/03/14 00:59:10;;;;;;;;;;;;;;;;;;4348700;32;20032;-75
2022/03/14 01:01:35;;;;;;;5.00;3.33;;;;;;;;;;4357529;32;19949;-76
2022/03/14 01:04:00;;;;;;;;;;;;;;;;;;4359966;32;20038;-75
2022/03/14 01:06:26;;;;;;;4.47;2.90;;;;;;;;;;4360531;32;19946;-76
2022/03/14 01:08:51;;;;;;;;;;;;;;;;;;4358493;33;20027;-75
2022/03/14 01:11:16;;;;;;;4.37;3.17;;;;;;;;;;4342136;33;20034;-75
2022/03/14 01:13:41;;;;;;;;;;;;;;;;;;4346543;33;20459;-75
2022/03/14 01:16:06;;;;;;;4.03;3.10;;;;;;;;;;4360380;32;19961;-75
2022/03/14 01:18:32;;;;;;;;;;;;;;;;;;4356346;33;20182;-75
2022/03/14 01:20:57;;;;;;;4.03;3.15;;;;;;;;;;4343677;33;19968;-76
2022/03/14 01:23:22;;;;;;;;;;;;;;;;;;4356519;33;20372;-76
2022/03/14 01:25:47;;;;;;;5.47;3.22;;;;;;;;;;4346285;33;19938;-75
2022/03/14 01:28:13;;;;;;;;;;;;;;;;;;4346687;33;20352;-75
2022/03/14 01:30:42;;;;;;;4.72;3.83;;;;;;;;;;4360038;33;19938;-75
2022/03/14 01:33:07;;;;;;;4.30;3.40;;;;;;;;;;4338752;33;20028;-75
2022/03/14 01:35:33;;;;;;;;;;;;;;;;;;4343698;33;20066;-74
2022/03/14 01:37:58;;;;;;;3.78;3.10;;;;;;;;;;4343299;33;20000;-75
2022/03/14 01:40:23;;;;;;;;;;;;;;;;;;4338870;33;20062;-76
2022/03/14 01:42:48;;;;;;;3.85;3.00;;;;;;;;;;4343443;33;19975;-75
2022/03/14 01:45:14;;;;;;;;;;;;;;;;;;4344254;33;20235;-75
2022/03/14 01:47:41;;;;;;;4.55;3.30;;;;;;;;;;4359458;33;20348;-75
2022/03/14 01:50:06;;;;;;;3.97;3.22;;;;;;;;;;4345396;33;20027;-75
2022/03/14 01:52:31;;;;;;;;;;;;;;;;;;4348306;33;20077;-75
2022/03/14 01:54:57;;;;;;;5.68;3.90;;;;;;;;;;4342882;33;19935;-75
2022/03/14 01:57:22;;;;;;;;;;;;;;;;;;4345946;33;20100;-76
2022/03/14 01:59:47;;;;;;;4.62;3.67;;;;;;;;;;4343066;33;20316;-76
2022/03/14 02:02:12;;;;;;;;;;;;;;;;;;4336456;33;20169;-76
2022/03/14 02:04:37;;;;;;;6.40;3.72;;;;;;;;;;4344274;33;19935;-76
2022/03/14 02:07:04;;;;;;;;;;;;;;;;;;4352783;33;20031;-74
2022/03/14 02:09:29;;;;;;;6.50;4.03;;;;;;;;;;4345713;33;20018;-76
2022/03/14 02:11:55;;;;;;;;;;;;;;;;;;4345608;33;20058;-76
2022/03/14 02:14:20;;;;;;;6.15;4.18;;;;;;;;;;4355006;33;19947;-75
2022/03/14 02:16:45;;;;;;;;;;;;;;;;;;4333808;33;20142;-76
2022/03/14 02:19:10;;;;;;;5.60;4.22;;;;;;;;;;4345557;33;20025;-75
2022/03/14 02:21:35;;;;;;;;;;;;;;;;;;4351714;33;20027;-76
2022/03/14 02:24:01;;;;;;;5.78;4.10;;;;;;;;;;4352982;33;19938;-75
2022/03/14 02:26:26;;;;;;;;;;;;;;;;;;4360261;32;20031;-75
2022/03/14 02:28:51;;;;;;;5.95;4.43;;;;;;;;;;4346517;33;19953;-74
2022/03/14 02:31:16;;;;;;;;;;;;;;;;;;4347764;33;20024;-75
2022/03/14 02:33:41;;;;;;;7.55;5.68;;;;;;;;;;4345582;33;19994;-73
2022/03/14 02:36:07;;;;;;;;;;;;;;;;;;4349119;33;20054;-75
2022/03/14 02:38:32;;;;;;;8.45;6.32;;;;;;;;;;4345573;33;20273;-75
2022/03/14 02:40:58;;;;;;;;;;;;;;;;;;4361142;32;20335;-75
2022/03/14 02:43:24;;;;;;;8.00;6.50;;;;;;;;;;4361926;32;19968;-75
2022/03/14 02:45:51;;;;;;;;;;;;;;;;;;4360483;33;20161;-75
2022/03/14 02:48:17;;;;;;;7.57;6.78;;;;;;;;;;4360799;32;20309;-76
2022/03/14 02:50:42;;;;;;;;;;;;;;;;;;4361101;32;20099;-75
2022/03/14 02:53:08;;;;;;;10.82;7.87;;;;;;;;;;4361466;32;19953;-75
2022/03/14 02:55:33;;;;;;;8.48;7.40;;;;;;;;;;4360379;32;20039;-75
2022/03/14 02:57:59;;;;;;;;;;;;;;;;;;4363443;32;20544;-76
2022/03/14 03:00:24;;;;;;;10.10;7.45;;;;;;;;;;4359543;32;20329;-76
2022/03/14 03:02:49;;;;;;;;;;;;;;;;;;4361699;32;20078;-75
2022/03/14 03:05:14;;;;;;;8.73;7.35;;;;;;;;;;4361497;32;19981;-75
2022/03/14 03:07:40;;;;;;;;;;;;;;;;;;4360849;32;20086;-75
2022/03/14 03:10:07;;;;;;;9.73;8.23;;;;;;;;;;4359685;33;19939;-75
2022/03/14 03:12:32;;;;;;;11.00;8.85;;;;;;;;;;4361862;32;20567;-75
2022/03/14 03:14:58;;;;;;;;;;;;;;;;;;4350644;32;20027;-75
2022/03/14 03:17:23;;;;;;;9.15;8.00;;;;;;;;;;4361776;32;20313;-75
2022/03/14 03:19:48;;;;;;;;;;;;;;;;;;4349240;32;20063;-75
2022/03/14 03:22:14;;;;;;;9.20;8.25;;;;;;;;;;4359914;32;20084;-76
2022/03/14 03:24:39;;;;;;;;;;;;;;;;;;4360604;33;20124;-75
2022/03/14 03:27:04;;;;;;;10.63;9.40;;;;;;;;;;4361402;33;20002;-74
2022/03/14 03:29:29;;;;;;;;;;;;;;;;;;4362841;32;20068;-74
2022/03/14 03:31:54;;;;;;;10.82;9.70;;;;;;;;;;4359454;33;19954;-75
2022/03/14 03:34:19;;;;;;;;;;;;;;;;;;4362801;32;20035;-75
2022/03/14 03:36:44;;;;;;;13.40;11.18;;;;;;;;;;4359727;33;19996;-76
2022/03/14 03:39:09;;;;;;;;;;;;;;;;;;4361577;32;20549;-76
2022/03/14 03:41:35;;;;;;;16.02;14.32;;;;;;;;;;4347019;33;19938;-76
2022/03/14 03:44:00;;;;;;;;;;;;;;;;;;4360778;32;20035;-75
2022/03/14 03:46:25;;;;;;;20.42;17.60;;;;;;;;;;4346660;33;19939;-75
2022/03/14 03:48:50;;;;;;;;;;;;;;;;;;4341698;33;20036;-75
2022/03/14 03:51:15;;;;;;;26.45;22.23;;;;;;;;;;4352332;32;19962;-76
2022/03/14 03:53:40;;;;;;;;;;;;;;;;;;4344402;33;20031;-75
2022/03/14 03:56:06;;;;;;;29.63;24.00;;;;;;;;;;4347759;33;19938;-76
2022/03/14 03:58:31;;;;;;;;;;;;;;;;;;4362657;32;20026;-74
2022/03/14 04:00:56;;;;;;;27.33;22.27;;;;;;;;;;4340084;33;20307;-75
2022/03/14 04:03:21;;;;;;;;;;;;;;;;;;4344891;33;20031;-76
2022/03/14 04:05:47;;;;;;;32.40;24.98;;;;;;;;;;4356742;32;19951;-75
2022/03/14 04:08:13;;;;;;;42.08;28.87;;;;;;;;;;4347514;33;20361;-75
2022/03/14 04:10:38;;;;;;;;;;;;;;;;;;4357862;32;20028;-75
2022/03/14 04:13:04;;;;;;;30.80;25.45;;;;;;;;;;4357605;32;19952;-75
2022/03/14 04:15:30;;;;;;;31.17;25.42;;;;;;;;;;4341083;33;20619;-75
2022/03/14 04:18:02;;;;;;;;;;;;;;;;;;4338704;33;20028;-76
2022/03/14 04:20:28;;;;;;;25.80;18.40;;;;;;;;;;4357413;32;20288;-76
2022/03/14 04:22:53;;;;;;;;;;;;;;;;;;4359211;32;20058;-76
2022/03/14 04:25:18;;;;;;;24.12;17.15;;;;;;;;;;4356775;33;19951;-75
2022/03/14 04:27:43;;;;;;;;;;;;;;;;;;4334204;32;20201;-77
2022/03/14 04:30:09;;;;;;;25.37;17.37;;;;;;;;;;4346422;33;20396;-76
2022/03/14 04:32:35;;;;;;;22.67;16.73;;;;;;;;;;4350665;33;20058;-76
2022/03/14 04:35:00;;;;;;;;;;;;;;;;;;4339218;33;20028;-76
2022/03/14 04:37:25;;;;;;;21.30;15.90;;;;;;;;;;4357892;32;19938;-76
2022/03/14 04:39:50;;;;;;;;;;;;;;;;;;4356786;32;20393;-75
2022/03/14 04:42:16;;;;;;;22.33;15.18;;;;;;;;;;4360167;32;19946;-75
2022/03/14 04:44:41;;;;;;;;;;;;;;;;;;4359390;33;20090;-75
2022/03/14 04:47:06;;;;;;;20.40;15.15;;;;;;;;;;4358526;33;19969;-77
2022/03/14 04:49:31;;;;;;;;;;;;;;;;;;4355991;32;20079;-76
2022/03/14 04:51:56;;;;;;;23.05;15.13;;;;;;;;;;4348093;32;19962;-76
2022/03/14 04:54:22;;;;;;;;;;;;;;;;;;4345549;32;20046;-76
2022/03/14 04:56:47;;;;;;;24.40;13.13;;;;;;;;;;4368641;32;20002;-78
2022/03/14 04:59:12;;;;;;;;;;;;;;;;;;4355275;32;20158;-76
2022/03/14 05:01:37;;;;;;;23.15;14.90;;;;;;;;;;4360372;32;19969;-76
2022/03/14 05:04:02;;;;;;;;;;;;;;;;;;4357942;32;20105;-77
2022/03/14 05:06:28;;;;;;;21.73;14.43;;;;;;;;;;4351388;32;19943;-75
2022/03/14 05:08:53;;;;;;;;;;;;;;;;;;4347277;33;20081;-77
2022/03/14 05:11:19;;;;;;;23.12;15.18;;;;;;;;;;4368713;32;19970;-75
2022/03/14 05:13:44;;;;;;;;;;;;;;;;;;4349727;33;20039;-76
2022/03/14 05:16:09;;;;;;;21.25;15.63;;;;;;;;;;4358765;32;19965;-76
2022/03/14 05:18:35;;;;;;;;;;;;;;;;;;4362013;32;20102;-75
2022/03/14 05:21:00;;;;;;;29.17;17.48;;;;;;;;;;4357906;32;19970;-75
2022/03/14 05:23:28;;;;;;;;;;;;;;;;;;4361614;33;20444;-75
2022/03/14 05:25:53;;;;;;;25.58;17.12;;;;;;;;;;4358554;33;19946;-76
2022/03/14 05:28:18;;;;;;;;;;;;;;;;;;4358461;33;20474;-76
2022/03/14 05:30:43;;;;;;;24.37;17.15;;;;;;;;;;4359927;33;19946;-76
2022/03/14 05:33:08;;;;;;;;;;;;;;;;;;4358027;33;20392;-75
2022/03/14 05:35:34;;;;;;;26.33;17.40;;;;;;;;;;4357565;33;19949;-75
2022/03/14 05:37:59;;;;;;;;;;;;;;;;;;4345508;33;20032;-75
2022/03/14 05:40:24;;;;;;;31.75;18.12;;;;;;;;;;4368475;32;20006;-75
2022/03/14 05:42:49;;;;;;;;;;;;;;;;;;4344864;33;20055;-74
2022/03/14 05:45:15;;;;;;;24.60;18.86;;;;;;;;;;4369697;32;19939;-76
2022/03/14 05:47:40;;;;;;;;;;;;;;;;;;4343968;33;20032;-75
2022/03/14 05:50:06;;;;;;;26.05;18.98;;;;;;;;;;4352139;33;19981;-75
2022/03/14 05:52:31;;;;;;;;;;;;;;;;;;4358171;33;20311;-76
2022/03/14 05:54:56;;;;;;;29.10;17.87;;;;;;;;;;4350671;33;19938;-76
2022/03/14 05:57:21;;;;;;;;;;;;;;;;;;4346719;33;20062;-75
2022/03/14 05:59:48;;;;;;;24.12;17.12;;;;;;;;;;4368584;32;19949;-76
2022/03/14 06:02:18;;;;;;;26.52;18.55;;;;;;;;;;4368487;32;20077;-76
2022/03/14 06:04:43;;;;;;;24.73;18.77;;;;;;;;;;4354825;32;20035;-75
2022/03/14 06:07:08;;;;;;;;;;;;;;;;;;4347464;33;20089;-75
2022/03/14 06:09:34;;;;;;;24.20;18.58;;;;;;;;;;4370901;32;19998;-75
2022/03/14 06:11:59;;;;;;;;;;;;;;;;;;4360815;32;20442;-76
2022/03/14 06:14:24;;;;;;;24.92;17.37;;;;;;;;;;4358376;32;20305;-76
2022/03/14 06:16:49;;;;;;;;;;;;;;;;;;4348811;32;20369;-75
2022/03/14 06:19:15;;;;;;;28.83;17.83;;;;;;;;;;4370951;32;20314;-74
2022/03/14 06:21:40;;;;;;;;;;;;;;;;;;4353225;33;20028;-75
2022/03/14 06:24:06;;;;;;;35.08;20.30;;;;;;;;;;4359163;33;19983;-75
2022/03/14 06:26:31;;;;;;;;;;;;;;;;;;4360648;32;20054;-75
2022/03/14 06:28:56;;;;;;;31.90;21.60;;;;;;;;;;4360376;32;19958;-75
2022/03/14 06:31:21;;;;;;;;;;;;;;;;;;4349786;32;20182;-75
2022/03/14 06:33:49;;;;;;;28.65;21.62;;;;;;;;;;4361402;32;19947;-76
2022/03/14 06:36:14;;;;;;;33.10;22.65;;;;;;;;;;4361976;32;20027;-74
2022/03/14 06:38:39;;;;;;;;;;;;;;;;;;4375263;32;20027;-74
2022/03/14 06:41:05;;;;;;;32.20;23.40;;;;;;;;;;4347888;32;20017;-76
2022/03/14 06:43:33;;;;;;;;;;;;;;;;;;4348148;33;20031;-74
2022/03/14 06:45:58;;;;;;;32.33;25.48;;;;;;;;;;4372507;32;20009;-76
2022/03/14 06:48:24;;;;;;;;;;;;;;;;;;4347840;33;20413;-76
2022/03/14 06:50:49;;;;;;;31.30;25.08;;;;;;;;;;4364081;32;19949;-76
2022/03/14 06:53:14;;;;;;;;;;;;;;;;;;4362660;32;20042;-76
2022/03/14 06:55:40;;;;;;;37.20;27.65;;;;;;;;;;4354205;33;20332;-74
2022/03/14 06:58:05;;;;;;;;;;;;;;;;;;4362483;32;20027;-75
2022/03/14 07:00:30;;;;;;;32.17;24.05;;;;;;;;;;4372118;32;19938;-75
2022/03/14 07:02:55;;;;;;;;;;;;;;;;;;4347831;33;20084;-75
2022/03/14 07:05:23;;;;;;;30.37;22.75;;;;;;;;;;4361047;32;19934;-76
2022/03/14 07:07:49;;;;;;;31.92;23.08;;;;;;;;;;4353947;32;20334;-76
2022/03/14 07:10:14;;;;;;;;;;;;;;;;;;4353452;32;20051;-75
2022/03/14 07:12:44;;;;;;;36.50;25.27;;;;;;;;;;4361895;32;20261;-73
2022/03/14 07:15:09;;;;;;;32.78;23.20;;;;;;;;;;4349102;32;20166;-74
2022/03/14 07:17:34;;;;;;;;;;;;;;;;;;4347992;33;20424;-73
2022/03/14 07:20:00;;;;;;;29.52;21.42;;;;;;;;;;4360420;32;20320;-74
2022/03/14 07:22:29;;;;;;;;;;;;;;;;;;4348141;33;20166;-74
2022/03/14 07:24:54;;;;;;;40.33;26.12;;;;;;;;;;4359864;32;19931;-74
2022/03/14 07:27:19;;;;;;;;;;;;;;;;;;4348372;32;20113;-74
2022/03/14 07:29:44;;;;;;;46.25;28.55;;;;;;;;;;4360863;32;19982;-75
2022/03/14 07:32:10;;;;;;;;;;;;;;;;;;4361273;32;20218;-76
2022/03/14 07:34:35;;;;;;;54.92;31.33;;;;;;;;;;4359504;33;19934;-75
2022/03/14 07:37:00;;;;;;;;;;;;;;;;;;4359306;33;20378;-74
2022/03/14 07:39:25;;;;;;;51.13;33.50;;;;;;;;;;4360116;32;20026;-76
2022/03/14 07:41:50;;;;;;;;;;;;;;;;;;4347352;33;20465;-77
2022/03/14 07:44:16;;;;;;;44.85;31.37;;;;;;;;;;4362046;32;20339;-75
2022/03/14 07:46:41;;;;;;;;;;;;;;;;;;4359681;32;20053;-75
2022/03/14 07:49:08;;;;;;;53.95;33.63;;;;;;;;;;4361026;32;19938;-76
2022/03/14 07:51:33;;;;;;;55.75;36.30;;;;;;;;;;4345706;33;20361;-76
2022/03/14 07:53:58;;;;;;;;;;;;;;;;;;4359656;33;20112;-77
2022/03/14 07:56:23;;;;;;;47.72;33.55;;;;;;;;;;4359784;32;19949;-76
2022/03/14 07:58:49;;;;;;;;;;;;;;;;;;4348648;32;20162;-76
2022/03/14 08:01:14;;;;;;;60.10;38.88;;;;;;;;;;4359725;32;19950;-75
2022/03/14 08:03:39;;;;;;;;;;;;;;;;;;4347175;33;20385;-75
2022/03/14 08:06:07;;;;;;;61.45;40.12;;;;;;;;;;4359758;32;19939;-75
2022/03/14 08:08:33;;;;;;;55.35;36.17;;;;;;;;;;4347323;33;20027;-75
2022/03/14 08:11:01;;;;;;;;;;;;;;;;;;4360399;32;20100;-75
2022/03/14 08:13:27;;;;;;;57.88;39.85;;;;;;;;;;4360473;32;20347;-76
2022/03/14 08:15:52;;;;;;;;;;;;;;;;;;4359930;32;20047;-75
2022/03/14 08:18:17;;;;;;;61.45;39.75;;;;;;;;;;4359648;32;19938;-75
2022/03/14 08:20:43;;;;;;;;;;;;;;;;;;4346773;33;20140;-76
2022/03/14 08:23:08;;;;;;;61.70;41.78;;;;;;;;;;4360732;32;19939;-76
2022/03/14 08:25:36;;;;;;;;;;;;;;;;;;4346030;33;20031;-75
2022/03/14 08:28:02;;;;;;;53.10;38.97;;;;;;;;;;4359063;32;20296;-75
2022/03/14 08:30:27;;;;;;;;;;;;;;;;;;4359035;32;20023;-76
2022/03/14 08:32:54;;;;;;;62.13;39.17;;;;;;;;;;4355526;33;19949;-75
2022/03/14 08:35:20;;;;;;;49.30;36.00;;;;;;;;;;4347159;33;20160;-75
2022/03/14 08:37:47;;;;;;;51.80;36.42;;;;;;;;;;4347802;32;20108;-76
2022/03/14 08:40:13;;;;;;;51.95;34.78;;;;;;;;;;4359961;32;20111;-74
2022/03/14 08:42:39;;;;;;;49.30;34.33;;;;;;;;;;4360276;32;20095;-77
2022/03/14 08:45:04;;;;;;;;;;;;;;;;;;4360968;32;20027;-74
2022/03/14 08:47:29;;;;;;;50.95;33.28;;;;;;;;;;4355986;32;19981;-77
2022/03/14 08:49:54;;;;;;;;;;;;;;;;;;4349187;33;20036;-75
2022/03/14 08:52:19;;;;;;;50.33;35.83;;;;;;;;;;4359149;32;20382;-77
2022/03/14 08:54:45;;;;;;;;;;;;;;;;;;4347611;33;20070;-74
2022/03/14 08:57:10;;;;;;;53.08;34.40;;;;;;;;;;4360056;32;19943;-76
2022/03/14 08:59:35;;;;;;;;;;;;;;;;;;4359859;32;20027;-74
2022/03/14 09:02:00;;;;;;;58.76;35.76;;;;;;;;;;4359934;32;19939;-76
2022/03/14 09:04:25;;;;;;;;;;;;;;;;;;4346675;33;20091;-75
2022/03/14 09:06:51;;;;;;;51.17;35.42;;;;;;;;;;4360128;33;20009;-75
2022/03/14 09:09:17;;;;;;;;;;;;;;;;;;4359943;32;20093;-75
2022/03/14 09:11:44;;;;;;;56.25;36.42;;;;;;;;;;4358349;32;19990;-74
2022/03/14 09:14:09;;;;;;;56.15;36.90;;;;;;;;;;4345956;33;20452;-75
2022/03/14 09:16:35;;;;;;;;;;;;;;;;;;4360433;32;20050;-74
2022/03/14 09:19:00;;;;;;;43.63;29.67;;;;;;;;;;4358063;32;20324;-75
2022/03/14 09:21:26;;;;;;;;;;;;;;;;;;4355005;32;20031;-76
2022/03/14 09:23:52;;;;;;;48.35;33.08;;;;;;;;;;4358941;33;19930;-76
2022/03/14 09:26:17;;;;;;;;;;;;;;;;;;4359066;33;20345;-75
2022/03/14 09:28:44;;;;;;;51.05;35.25;;;;;;;;;;4361126;33;19994;-75
2022/03/14 09:31:11;;;;;;;53.05;36.80;;;;;;;;;;4359359;33;20388;-74
2022/03/14 09:33:36;;;;;;;54.22;39.15;;;;;;;;;;4359848;33;20032;-76
2022/03/14 09:36:02;;;;;;;;;;;;;;;;;;4360338;32;20111;-76
2022/03/14 09:38:29;;;;;;;60.05;42.47;;;;;;;;;;4361196;33;19968;-75
2022/03/14 09:40:55;;;;;;;59.72;43.53;;;;;;;;;;4361385;32;20085;-75
2022/03/14 09:43:22;;;;;;;69.50;41.55;;;;;;;;;;4362854;32;20337;-74
2022/03/14 09:45:50;;;;;;;68.45;42.78;;;;;;;;;;4362568;33;20061;-76
2022/03/14 09:48:15;;;;;;;61.22;39.95;;;;;;;;;;4350094;33;20090;-74
2022/03/14 09:50:40;;;;;;;;;;;;;;;;;;4349115;33;20028;-75
2022/03/14 09:53:07;;;;;;;43.00;26.55;;;;;;;;;;4363091;32;19939;-75
2022/03/14 09:55:35;;;;;;;40.47;24.70;;;;;;;;;;4361473;32;20039;-76
2022/03/14 09:58:01;;;;;;;46.97;27.17;;;;;;;;;;4350081;32;20406;-75
2022/03/14 10:00:26;;;;;;;;;;;;;;;;;;4348120;33;20079;-75
2022/03/14 10:02:51;;;;;;;42.05;27.50;;;;;;;;;;4347037;33;19977;-75
2022/03/14 10:05:16;;;;;;;;;;;;;;;;;;4347945;33;20482;-75
2022/03/14 10:07:43;;;;;;;41.88;25.85;;;;;;;;;;4346141;33;20006;-75
2022/03/14 10:10:09;;;;;;;47.83;26.33;;;;;;;;;;4333768;33;20140;-76
2022/03/14 10:12:34;;;;;;;33.95;23.87;;;;;;;;;;4348777;33;20047;-76
2022/03/14 10:14:59;;;;;;;;;;;;;;;;;;4346397;33;20060;-74
2022/03/14 10:17:24;;;;;;;48.10;32.38;;;;;;;;;;4345923;33;20347;-75
2022/03/14 10:19:50;;;;;;;;;;;;;;;;;;4346836;33;20027;-75
2022/03/14 10:22:18;;;;;;;67.12;35.03;;;;;;;;;;4347157;33;19935;-75
2022/03/14 10:24:44;;;;;;;51.20;34.65;;;;;;;;;;4334918;33;20090;-75
2022/03/14 10:27:09;;;;;;;;;;;;;;;;;;4346043;33;20067;-75
2022/03/14 10:29:35;;;;;;;44.78;30.55;;;;;;;;;;4345786;33;19970;-75
2022/03/14 10:32:01;;;;;;;45.03;31.02;;;;;;;;;;4333883;33;20031;-75
2022/03/14 10:34:26;;;;;;;54.58;31.23;;;;;;;;;;4333571;33;20027;-75
2022/03/14 10:36:51;;;;;;;;;;;;;;;;;;4347585;33;20430;-76
2022/03/14 10:39:17;;;;;;;38.35;27.02;;;;;;;;;;4349782;33;19967;-77
2022/03/14 10:41:42;;;;;;;;;;;;;;;;;;4348573;33;20035;-76
2022/03/14 10:44:07;;;;;;;39.90;23.75;;;;;;;;;;4363419;32;19934;-76
2022/03/14 10:46:32;;;;;;;;;;;;;;;;;;4348373;33;20066;-75
2022/03/14 10:48:58;;;;;;;38.83;22.98;;;;;;;;;;4362915;32;19947;-76
2022/03/14 10:51:23;;;;;;;35.17;25.12;;;;;;;;;;4348575;33;20447;-75
2022/03/14 10:53:48;;;;;;;;;;;;;;;;;;4347921;33;20058;-76
2022/03/14 10:56:14;;;;;;;41.65;28.08;;;;;;;;;;4361673;33;19954;-75
2022/03/14 10:58:39;;;;;;;49.92;28.10;;;;;;;;;;4362967;32;20067;-74
2022/03/14 11:01:04;;;;;;;;;;;;;;;;;;4348011;33;20031;-76
2022/03/14 11:03:33;;;;;;;45.95;30.35;;;;;;;;;;4361417;32;19950;-75
2022/03/14 11:05:59;;;;;;;45.10;28.45;;;;;;;;;;4361194;32;20042;-76
2022/03/14 11:08:24;;;;;;;;;;;;;;;;;;4347595;33;20061;-77
2022/03/14 11:10:49;;;;;;;39.45;26.50;;;;;;;;;;4360028;32;19980;-74
2022/03/14 11:13:14;;;;;;;;;;;;;;;;;;4362332;32;20039;-76
2022/03/14 11:15:40;;;;;;;43.63;19.15;;;;;;;;;;4361617;32;19977;-76
2022/03/14 11:18:05;;;;;;;;;;;;;;;;;;4361711;32;20154;-76
2022/03/14 11:20:31;;;;;;;26.77;16.83;;;;;;;;;;4360722;32;19938;-75
2022/03/14 11:22:57;;;;;;;36.08;24.75;;;;;;;;;;4347882;33;20053;-74
2022/03/14 11:25:22;;;;;;;51.40;31.83;;;;;;;;;;4357262;32;20035;-76
2022/03/14 11:27:49;;;;;;;44.17;26.83;;;;;;;;;;4356977;32;20093;-76
2022/03/14 11:30:15;;;;;;;42.28;25.15;;;;;;;;;;4350283;32;20034;-76
2022/03/14 11:32:42;;;;;;;38.85;27.80;;;;;;;;;;4351521;32;20061;-75
2022/03/14 11:35:08;;;;;;;34.53;22.70;;;;;;;;;;4357287;32;20146;-76
2022/03/14 11:37:33;;;;;;;33.28;24.00;;;;;;;;;;4350789;32;20058;-74
2022/03/14 11:39:59;;;;;;;36.72;22.25;;;;;;;;;;4341903;33;20071;-76
2022/03/14 11:42:25;;;;;;;28.05;16.23;;;;;;;;;;4336293;33;20106;-77
2022/03/14 11:44:50;;;;;;;27.80;15.35;;;;;;;;;;4351174;32;20036;-76
2022/03/14 11:47:15;;;;;;;;;;;;;;;;;;4348007;32;20475;-75
2022/03/14 11:49:41;;;;;;;25.83;11.70;;;;;;;;;;4352444;33;19960;-74
2022/03/14 11:52:10;;;;;;;26.60;16.87;;;;;;;;;;4359638;33;20334;-75
2022/03/14 11:54:39;;;;;;;28.40;16.35;;;;;;;;;;4360541;32;20035;-73
2022/03/14 11:57:04;;;;;;;23.87;13.10;;;;;;;;;;4360229;33;20447;-75
2022/03/14 11:59:30;;;;;;;22.20;14.18;;;;;;;;;;4358690;32;20077;-74
2022/03/14 12:01:58;;;;;;;19.55;12.27;;;;;;;;;;4354747;32;20495;-75
2022/03/14 12:04:37;;;;;;;31.10;16.67;;;;;;;;;;4358249;32;20150;-76
2022/03/14 12:07:03;;;;;;;21.40;13.60;;;;;;;;;;4346843;33;20085;-75
2022/03/14 12:09:29;;;;;;;28.12;15.98;;;;;;;;;;4334721;33;20027;-76
2022/03/14 12:11:55;;;;;;;22.70;10.52;;;;;;;;;;4356846;32;20470;-76
2022/03/14 12:14:38;;;;;;;20.65;9.55;;;;;;;;;;4345656;33;20069;-75
2022/03/14 12:17:13;;;;;;;22.73;9.50;;;;;;;;;;4345968;33;20085;-75
2022/03/14 12:19:41;;;;;;;17.00;9.15;;;;;;;;;;4345341;33;20051;-75
2022/03/14 12:22:07;;;;;;;23.05;10.50;;;;;;;;;;4344021;33;20077;-75
2022/03/14 12:24:35;;;;;;;22.00;9.88;;;;;;;;;;4344791;33;20028;-76
2022/03/14 12:27:01;;;;;;;35.97;12.60;;;;;;;;;;4333320;33;20594;-76
2022/03/14 12:29:33;;;;;;;25.25;14.32;;;;;;;;;;4343459;33;20094;-75
2022/03/14 12:32:17;;;;;;;24.63;18.25;;;;;;;;;;4343496;33;20050;-75
2022/03/14 12:34:42;;;;;;;28.20;15.13;;;;;;;;;;4346679;33;20037;-76
2022/03/14 12:37:23;;;;;;;18.48;12.25;;;;;;;;;;4345654;33;20036;-75
2022/03/14 12:39:48;;;;;;;29.58;14.93;;;;;;;;;;4344013;33;20479;-76
2022/03/14 12:42:22;;;;;;;22.33;14.25;;;;;;;;;;4343712;33;20036;-76
2022/03/14 12:45:06;;;;;;;24.27;12.68;;;;;;;;;;4344412;33;20041;-76
2022/03/14 12:47:31;;;;;;;21.60;12.15;;;;;;;;;;4344522;33;20123;-75
2022/03/14 12:49:56;;;;;;;26.92;14.00;;;;;;;;;;4345332;33;20035;-76
2022/03/14 12:52:21;;;;;;;23.80;15.48;;;;;;;;;;4332569;33;20031;-76
2022/03/14 12:54:47;;;;;;;31.27;17.95;;;;;;;;;;4331454;33;20089;-75
2022/03/14 12:57:12;;;;;;;;;;;;;;;;;;4344924;33;20072;-75
2022/03/14 12:59:42;;;;;;;33.83;18.70;;;;;;;;;;4344245;33;19939;-75
2022/03/14 13:02:19;;;;;;;31.20;18.33;;;;;;;;;;4343854;33;20027;-75
2022/03/14 13:04:53;;;;;;;28.65;16.60;;;;;;;;;;4345596;33;20370;-76
2022/03/14 13:07:18;;;;;;;30.83;15.95;;;;;;;;;;4331572;33;20366;-75
2022/03/14 13:09:50;;;;;;;27.13;15.23;;;;;;;;;;4343724;33;20051;-76
2022/03/14 13:12:15;;;;;;;32.78;14.77;;;;;;;;;;4353712;32;20039;-75
2022/03/14 13:14:43;;;;;;;33.40;15.25;;;;;;;;;;4359407;32;20068;-76
2022/03/14 13:17:08;;;;;;;34.10;14.57;;;;;;;;;;4358650;33;20053;-75
2022/03/14 13:19:35;;;;;;;23.58;15.90;;;;;;;;;;4358840;32;20032;-75
2022/03/14 13:22:10;;;;;;;23.52;13.90;;;;;;;;;;4358574;32;20425;-76
2022/03/14 13:24:37;;;;;;;33.35;18.33;;;;;;;;;;4357976;33;20080;-76
2022/03/14 13:27:02;;;;;;;30.98;19.60;;;;;;;;;;4358268;33;20106;-76
2022/03/14 13:29:33;;;;;;;31.67;19.95;;;;;;;;;;4359324;33;20054;-76
2022/03/14 13:32:00;;;;;;;35.53;20.08;;;;;;;;;;4361197;33;20082;-75
2022/03/14 13:34:28;;;;;;;28.27;18.12;;;;;;;;;;4360206;33;20043;-77
2022/03/14 13:37:02;;;;;;;25.95;16.65;;;;;;;;;;4358289;33;20019;-76
2022/03/14 13:39:28;;;;;;;29.50;18.80;;;;;;;;;;4359315;32;20035;-80
2022/03/14 13:42:00;;;;;;;29.08;18.15;;;;;;;;;;4356340;33;20429;-80
2022/03/14 13:44:26;;;;;;;32.80;20.67;;;;;;;;;;4344430;33;20074;-81
2022/03/14 13:46:52;;;;;;;28.92;18.27;;;;;;;;;;4352617;33;20039;-80
2022/03/14 13:49:22;;;;;;;27.77;16.67;;;;;;;;;;4350127;33;20150;-81
2022/03/14 13:51:57;;;;;;;24.90;15.70;;;;;;;;;;4352925;33;20027;-81
2022/03/14 13:54:25;;;;;;;27.02;15.82;;;;;;;;;;4360287;33;20062;-82
2022/03/14 13:56:51;;;;;;;27.10;13.88;;;;;;;;;;4343535;33;20093;-80
2022/03/14 13:59:31;;;;;;;26.20;14.77;;;;;;;;;;4331105;33;20040;-80
2022/03/14 14:02:02;;;;;;;25.08;11.30;;;;;;;;;;4331965;33;20028;-82
2022/03/14 14:04:29;;;;;;;18.35;10.27;;;;;;;;;;4345063;33;20028;-80
2022/03/14 14:06:56;;;;;;;21.30;9.15;;;;;;;;;;4331642;33;20035;-81
2022/03/14 14:09:23;;;;;;;16.65;7.68;;;;;;;;;;4344223;33;20087;-79
2022/03/14 14:11:57;;;;;;;18.65;7.32;;;;;;;;;;4332924;33;20059;-81
2022/03/14 14:14:26;;;;;;;19.95;7.55;;;;;;;;;;4332745;33;20052;-80
2022/03/14 14:16:52;;;;;;;20.15;7.05;;;;;;;;;;4331315;33;20078;-79
2022/03/14 14:19:17;;;;;;;18.50;6.82;;;;;;;;;;4332311;33;20027;-81
2022/03/14 14:21:53;;;;;;;23.98;6.68;;;;;;;;;;4331797;33;20378;-80
2022/03/14 14:24:22;;;;;;;17.65;6.10;;;;;;;;;;4334436;33;20028;-81
2022/03/14 14:26:47;;;;;;;14.25;5.78;;;;;;;;;;4334587;33;20188;-80
2022/03/14 14:29:33;;;;;;;17.12;5.40;;;;;;;;;;4335619;33;20364;-80
2022/03/14 14:32:12;;;;;;;15.52;4.68;;;;;;;;;;4336123;33;20061;-81
2022/03/14 14:34:37;;;;;;;16.55;5.25;;;;;;;;;;4335188;33;20027;-81
2022/03/14 14:37:03;;;;;;;17.00;4.83;;;;;;;;;;4333747;33;20456;-79
2022/03/14 14:39:28;;;;;;;22.30;4.93;;;;;;;;;;4339243;33;20140;-80
2022/03/14 14:41:53;;;;;;;15.10;4.62;;;;;;;;;;4361602;32;20085;-80
2022/03/14 14:44:18;;;;;;;17.60;4.65;;;;;;;;;;4349119;33;20054;-80
2022/03/14 14:46:43;;;;;;;20.30;4.33;;;;;;;;;;4346997;33;20099;-80
2022/03/14 14:49:08;;;;;;;14.93;4.10;;;;;;;;;;4367235;32;20163;-80
2022/03/14 14:51:34;;;;;;;15.30;3.72;;;;;;;;;;4361004;33;20128;-80
2022/03/14 14:54:00;;;;;;;19.70;5.10;;;;;;;;;;4352084;32;20124;-81
2022/03/14 14:56:25;;;;;;;13.38;4.00;;;;;;;;;;4347843;33;20032;-79
2022/03/14 14:58:50;;;;;;;18.73;4.35;;;;;;;;;;4345984;33;20031;-79